sensor_id;sensor_type;location;lat;lon;timestamp;P1;durP1;ratioP1;P2;durP2;ratioP2
72117;SDS011;59992;47.490;8.736;2023-04-25T00:02:11;3.90;;;2.50;;
72117;SDS011;59992;47.490;8.736;2023-04-25T00:05:02;5.20;;;2.20;;
72117;SDS011;59992;47.490;8.736;2023-04-25T00:07:54;4.20;;;2.40;;
72117;SDS011;59992;47.490;8.736;2023-04-25T00:10:46;4.80;;;2.20;;
72117;SDS011;59992;47.490;8.736;2023-04-25T00:13:37;4.90;;;2.40;;
72117;SDS011;59992;47.490;8.736;2023-04-25T00:16:29;4.10;;;2.40;;
72117;SDS011;59992;47.490;8.736;2023-04-25T00:19:22;4.40;;;2.50;;
72117;SDS011;59992;47.490;8.736;2023-04-25T00:22:14;6.60;;;2.10;;
72117;SDS011;59992;47.490;8.736;2023-04-25T00:25:05;4.60;;;2.20;;
72117;SDS011;59992;47.490;8.736;2023-04-25T00:27:57;3.30;;;1.90;;
72117;SDS011;59992;47.490;8.736;2023-04-25T00:30:47;3.50;;;2.20;;
72117;SDS011;59992;47.490;8.736;2023-04-25T00:33:38;4.00;;;2.20;;
72117;SDS011;59992;47.490;8.736;2023-04-25T00:36:29;5.20;;;2.30;;
72117;SDS011;59992;47.490;8.736;2023-04-25T00:39:19;5.40;;;2.60;;
72117;SDS011;59992;47.490;8.736;2023-04-25T00:42:09;9.30;;;2.10;;
72117;SDS011;59992;47.490;8.736;2023-04-25T00:45:00;6.20;;;2.20;;
72117;SDS011;59992;47.490;8.736;2023-04-25T00:47:52;3.70;;;2.10;;
72117;SDS011;59992;47.490;8.736;2023-04-25T00:50:43;4.50;;;2.20;;
72117;SDS011;59992;47.490;8.736;2023-04-25T00:53:40;4.00;;;1.90;;
72117;SDS011;59992;47.490;8.736;2023-04-25T00:56:30;5.50;;;2.20;;
72117;SDS011;59992;47.490;8.736;2023-04-25T00:59:21;5.70;;;2.30;;
72117;SDS011;59992;47.490;8.736;2023-04-25T01:02:11;5.30;;;2.00;;
72117;SDS011;59992;47.490;8.736;2023-04-25T01:05:02;4.20;;;2.00;;
72117;SDS011;59992;47.490;8.736;2023-04-25T01:07:52;3.70;;;2.20;;
72117;SDS011;59992;47.490;8.736;2023-04-25T01:10:43;5.80;;;2.20;;
72117;SDS011;59992;47.490;8.736;2023-04-25T01:13:33;4.90;;;2.20;;
72117;SDS011;59992;47.490;8.736;2023-04-25T01:16:35;4.50;;;2.20;;
72117;SDS011;59992;47.490;8.736;2023-04-25T01:19:25;5.00;;;2.30;;
72117;SDS011;59992;47.490;8.736;2023-04-25T01:22:16;6.10;;;2.70;;
72117;SDS011;59992;47.490;8.736;2023-04-25T01:25:07;4.70;;;2.30;;
72117;SDS011;59992;47.490;8.736;2023-04-25T01:27:58;7.80;;;2.70;;
72117;SDS011;59992;47.490;8.736;2023-04-25T01:30:48;4.50;;;2.20;;
72117;SDS011;59992;47.490;8.736;2023-04-25T01:33:40;7.60;;;2.60;;
72117;SDS011;59992;47.490;8.736;2023-04-25T01:36:30;4.10;;;2.40;;
72117;SDS011;59992;47.490;8.736;2023-04-25T01:39:20;4.90;;;2.40;;
72117;SDS011;59992;47.490;8.736;2023-04-25T01:42:11;5.30;;;2.50;;
72117;SDS011;59992;47.490;8.736;2023-04-25T01:45:02;3.60;;;2.40;;
72117;SDS011;59992;47.490;8.736;2023-04-25T01:47:54;4.00;;;2.40;;
72117;SDS011;59992;47.490;8.736;2023-04-25T01:50:46;4.80;;;2.40;;
72117;SDS011;59992;47.490;8.736;2023-04-25T01:53:36;4.80;;;2.20;;
72117;SDS011;59992;47.490;8.736;2023-04-25T01:56:27;5.80;;;2.40;;
72117;SDS011;59992;47.490;8.736;2023-04-25T01:59:19;6.20;;;2.40;;
72117;SDS011;59992;47.490;8.736;2023-04-25T02:02:10;5.30;;;2.30;;
72117;SDS011;59992;47.490;8.736;2023-04-25T02:05:00;4.00;;;2.30;;
72117;SDS011;59992;47.490;8.736;2023-04-25T02:07:50;3.40;;;2.40;;
72117;SDS011;59992;47.490;8.736;2023-04-25T02:10:40;3.80;;;2.30;;
72117;SDS011;59992;47.490;8.736;2023-04-25T02:13:33;6.00;;;2.30;;
72117;SDS011;59992;47.490;8.736;2023-04-25T02:16:23;4.30;;;2.30;;
72117;SDS011;59992;47.490;8.736;2023-04-25T02:19:13;5.50;;;2.20;;
72117;SDS011;59992;47.490;8.736;2023-04-25T02:22:04;4.10;;;2.30;;
72117;SDS011;59992;47.490;8.736;2023-04-25T02:24:55;5.10;;;2.50;;
72117;SDS011;59992;47.490;8.736;2023-04-25T02:27:45;5.70;;;2.50;;
72117;SDS011;59992;47.490;8.736;2023-04-25T02:30:36;9.30;;;2.20;;
72117;SDS011;59992;47.490;8.736;2023-04-25T02:33:27;6.50;;;2.80;;
72117;SDS011;59992;47.490;8.736;2023-04-25T02:36:17;5.10;;;2.50;;
72117;SDS011;59992;47.490;8.736;2023-04-25T02:39:07;4.50;;;2.10;;
72117;SDS011;59992;47.490;8.736;2023-04-25T02:42:00;6.10;;;2.50;;
72117;SDS011;59992;47.490;8.736;2023-04-25T02:44:50;4.80;;;2.10;;
72117;SDS011;59992;47.490;8.736;2023-04-25T02:47:40;5.00;;;2.40;;
72117;SDS011;59992;47.490;8.736;2023-04-25T02:50:31;4.70;;;2.50;;
72117;SDS011;59992;47.490;8.736;2023-04-25T02:53:21;5.50;;;2.00;;
72117;SDS011;59992;47.490;8.736;2023-04-25T02:56:11;6.30;;;2.40;;
72117;SDS011;59992;47.490;8.736;2023-04-25T02:59:01;4.90;;;2.50;;
72117;SDS011;59992;47.490;8.736;2023-04-25T03:01:52;8.00;;;2.70;;
72117;SDS011;59992;47.490;8.736;2023-04-25T03:04:42;3.20;;;2.30;;
72117;SDS011;59992;47.490;8.736;2023-04-25T03:07:33;4.20;;;2.30;;
72117;SDS011;59992;47.490;8.736;2023-04-25T03:10:23;4.10;;;2.30;;
72117;SDS011;59992;47.490;8.736;2023-04-25T03:13:14;6.50;;;2.30;;
72117;SDS011;59992;47.490;8.736;2023-04-25T03:16:04;5.00;;;2.30;;
72117;SDS011;59992;47.490;8.736;2023-04-25T03:18:55;6.50;;;2.30;;
72117;SDS011;59992;47.490;8.736;2023-04-25T03:21:45;7.30;;;2.50;;
72117;SDS011;59992;47.490;8.736;2023-04-25T03:24:36;5.40;;;2.30;;
72117;SDS011;59992;47.490;8.736;2023-04-25T03:27:26;4.50;;;2.10;;
72117;SDS011;59992;47.490;8.736;2023-04-25T03:30:16;4.50;;;2.70;;
72117;SDS011;59992;47.490;8.736;2023-04-25T03:33:07;4.80;;;2.50;;
72117;SDS011;59992;47.490;8.736;2023-04-25T03:35:58;5.60;;;2.40;;
72117;SDS011;59992;47.490;8.736;2023-04-25T03:38:48;9.40;;;3.00;;
72117;SDS011;59992;47.490;8.736;2023-04-25T03:41:38;6.50;;;3.00;;
72117;SDS011;59992;47.490;8.736;2023-04-25T03:44:28;7.30;;;2.50;;
72117;SDS011;59992;47.490;8.736;2023-04-25T03:47:18;4.10;;;2.50;;
72117;SDS011;59992;47.490;8.736;2023-04-25T03:50:09;5.20;;;2.70;;
72117;SDS011;59992;47.490;8.736;2023-04-25T03:53:00;3.90;;;2.50;;
72117;SDS011;59992;47.490;8.736;2023-04-25T03:55:50;4.80;;;2.70;;
72117;SDS011;59992;47.490;8.736;2023-04-25T03:58:40;8.70;;;3.00;;
72117;SDS011;59992;47.490;8.736;2023-04-25T04:01:30;4.60;;;2.40;;
72117;SDS011;59992;47.490;8.736;2023-04-25T04:04:20;6.00;;;2.70;;
72117;SDS011;59992;47.490;8.736;2023-04-25T04:07:10;5.10;;;2.80;;
72117;SDS011;59992;47.490;8.736;2023-04-25T04:10:01;5.70;;;3.10;;
72117;SDS011;59992;47.490;8.736;2023-04-25T04:12:52;6.70;;;2.70;;
72117;SDS011;59992;47.490;8.736;2023-04-25T04:15:43;7.00;;;2.90;;
72117;SDS011;59992;47.490;8.736;2023-04-25T04:18:34;4.90;;;3.00;;
72117;SDS011;59992;47.490;8.736;2023-04-25T04:21:24;9.00;;;3.00;;
72117;SDS011;59992;47.490;8.736;2023-04-25T04:24:14;9.60;;;3.30;;
72117;SDS011;59992;47.490;8.736;2023-04-25T04:27:05;5.10;;;3.00;;
72117;SDS011;59992;47.490;8.736;2023-04-25T04:29:55;5.60;;;2.60;;
72117;SDS011;59992;47.490;8.736;2023-04-25T04:32:45;5.70;;;3.00;;
72117;SDS011;59992;47.490;8.736;2023-04-25T04:35:36;4.30;;;2.60;;
72117;SDS011;59992;47.490;8.736;2023-04-25T04:38:26;9.20;;;3.10;;
72117;SDS011;59992;47.490;8.736;2023-04-25T04:41:16;6.80;;;2.70;;
72117;SDS011;59992;47.490;8.736;2023-04-25T04:44:07;9.00;;;3.20;;
72117;SDS011;59992;47.490;8.736;2023-04-25T04:46:58;6.00;;;3.10;;
72117;SDS011;59992;47.490;8.736;2023-04-25T04:49:48;5.30;;;2.20;;
72117;SDS011;59992;47.490;8.736;2023-04-25T04:55:48;5.30;;;2.20;;
72117;SDS011;59992;47.490;8.736;2023-04-25T04:58:40;8.00;;;2.60;;
72117;SDS011;59992;47.490;8.736;2023-04-25T05:01:30;5.70;;;2.70;;
72117;SDS011;59992;47.490;8.736;2023-04-25T05:04:22;5.50;;;2.80;;
72117;SDS011;59992;47.490;8.736;2023-04-25T05:07:12;7.80;;;3.30;;
72117;SDS011;59992;47.490;8.736;2023-04-25T05:10:03;6.30;;;2.50;;
72117;SDS011;59992;47.490;8.736;2023-04-25T05:12:54;4.60;;;2.40;;
72117;SDS011;59992;47.490;8.736;2023-04-25T05:15:44;8.30;;;2.80;;
72117;SDS011;59992;47.490;8.736;2023-04-25T05:18:34;5.50;;;2.50;;
72117;SDS011;59992;47.490;8.736;2023-04-25T05:21:25;6.80;;;2.70;;
72117;SDS011;59992;47.490;8.736;2023-04-25T05:24:16;4.40;;;2.60;;
72117;SDS011;59992;47.490;8.736;2023-04-25T05:27:06;7.20;;;2.90;;
72117;SDS011;59992;47.490;8.736;2023-04-25T05:29:56;5.90;;;2.40;;
72117;SDS011;59992;47.490;8.736;2023-04-25T05:32:46;8.60;;;2.80;;
72117;SDS011;59992;47.490;8.736;2023-04-25T05:35:38;5.40;;;3.30;;
72117;SDS011;59992;47.490;8.736;2023-04-25T05:38:28;6.10;;;3.10;;
72117;SDS011;59992;47.490;8.736;2023-04-25T05:41:18;7.60;;;3.00;;
72117;SDS011;59992;47.490;8.736;2023-04-25T05:44:09;5.90;;;2.90;;
72117;SDS011;59992;47.490;8.736;2023-04-25T05:46:59;4.80;;;2.70;;
72117;SDS011;59992;47.490;8.736;2023-04-25T05:49:49;7.10;;;2.60;;
72117;SDS011;59992;47.490;8.736;2023-04-25T05:52:40;5.40;;;3.10;;
72117;SDS011;59992;47.490;8.736;2023-04-25T05:55:31;5.90;;;2.90;;
72117;SDS011;59992;47.490;8.736;2023-04-25T05:58:21;5.10;;;2.70;;
72117;SDS011;59992;47.490;8.736;2023-04-25T06:01:11;5.60;;;2.30;;
72117;SDS011;59992;47.490;8.736;2023-04-25T06:04:02;6.00;;;2.50;;
72117;SDS011;59992;47.490;8.736;2023-04-25T06:06:52;5.50;;;2.40;;
72117;SDS011;59992;47.490;8.736;2023-04-25T06:09:42;5.90;;;2.10;;
72117;SDS011;59992;47.490;8.736;2023-04-25T06:12:32;3.80;;;2.20;;
72117;SDS011;59992;47.490;8.736;2023-04-25T06:15:23;3.40;;;1.80;;
72117;SDS011;59992;47.490;8.736;2023-04-25T06:18:13;4.10;;;1.80;;
72117;SDS011;59992;47.490;8.736;2023-04-25T06:21:04;9.20;;;2.10;;
72117;SDS011;59992;47.490;8.736;2023-04-25T06:23:54;3.70;;;1.50;;
72117;SDS011;59992;47.490;8.736;2023-04-25T06:26:45;4.90;;;1.80;;
72117;SDS011;59992;47.490;8.736;2023-04-25T06:29:35;4.30;;;1.50;;
72117;SDS011;59992;47.490;8.736;2023-04-25T06:32:25;4.00;;;1.30;;
72117;SDS011;59992;47.490;8.736;2023-04-25T06:35:17;4.90;;;1.70;;
72117;SDS011;59992;47.490;8.736;2023-04-25T06:38:07;4.40;;;1.60;;
72117;SDS011;59992;47.490;8.736;2023-04-25T06:40:57;3.70;;;1.40;;
72117;SDS011;59992;47.490;8.736;2023-04-25T06:43:48;3.20;;;1.50;;
72117;SDS011;59992;47.490;8.736;2023-04-25T06:46:38;5.80;;;1.80;;
72117;SDS011;59992;47.490;8.736;2023-04-25T06:49:29;4.10;;;1.40;;
72117;SDS011;59992;47.490;8.736;2023-04-25T06:52:19;7.10;;;1.80;;
72117;SDS011;59992;47.490;8.736;2023-04-25T06:55:09;4.80;;;1.80;;
72117;SDS011;59992;47.490;8.736;2023-04-25T06:58:00;3.80;;;2.00;;
72117;SDS011;59992;47.490;8.736;2023-04-25T07:00:50;5.80;;;2.10;;
72117;SDS011;59992;47.490;8.736;2023-04-25T07:03:40;4.60;;;2.30;;
72117;SDS011;59992;47.490;8.736;2023-04-25T07:06:31;4.70;;;2.10;;
72117;SDS011;59992;47.490;8.736;2023-04-25T07:09:21;5.90;;;2.50;;
72117;SDS011;59992;47.490;8.736;2023-04-25T07:12:11;6.20;;;2.30;;
72117;SDS011;59992;47.490;8.736;2023-04-25T07:15:03;4.90;;;2.20;;
72117;SDS011;59992;47.490;8.736;2023-04-25T07:17:57;4.20;;;2.30;;
72117;SDS011;59992;47.490;8.736;2023-04-25T07:20:47;5.80;;;2.30;;
72117;SDS011;59992;47.490;8.736;2023-04-25T07:23:38;4.40;;;2.20;;
72117;SDS011;59992;47.490;8.736;2023-04-25T07:26:28;4.80;;;2.10;;
72117;SDS011;59992;47.490;8.736;2023-04-25T07:29:18;7.60;;;2.40;;
72117;SDS011;59992;47.490;8.736;2023-04-25T07:32:09;4.10;;;2.20;;
72117;SDS011;59992;47.490;8.736;2023-04-25T07:35:00;6.60;;;2.00;;
72117;SDS011;59992;47.490;8.736;2023-04-25T07:37:51;5.50;;;2.20;;
72117;SDS011;59992;47.490;8.736;2023-04-25T07:40:41;4.40;;;2.00;;
72117;SDS011;59992;47.490;8.736;2023-04-25T07:43:31;5.20;;;2.10;;
72117;SDS011;59992;47.490;8.736;2023-04-25T07:46:22;6.10;;;2.00;;
72117;SDS011;59992;47.490;8.736;2023-04-25T07:49:12;4.20;;;1.70;;
72117;SDS011;59992;47.490;8.736;2023-04-25T07:52:03;2.10;;;1.60;;
72117;SDS011;59992;47.490;8.736;2023-04-25T07:54:53;4.50;;;1.40;;
72117;SDS011;59992;47.490;8.736;2023-04-25T07:57:45;3.30;;;1.20;;
72117;SDS011;59992;47.490;8.736;2023-04-25T08:00:35;4.40;;;1.50;;
72117;SDS011;59992;47.490;8.736;2023-04-25T08:03:25;2.90;;;1.30;;
72117;SDS011;59992;47.490;8.736;2023-04-25T08:06:16;2.10;;;1.40;;
72117;SDS011;59992;47.490;8.736;2023-04-25T08:09:06;3.50;;;1.30;;
72117;SDS011;59992;47.490;8.736;2023-04-25T08:11:57;1.80;;;1.10;;
72117;SDS011;59992;47.490;8.736;2023-04-25T08:14:48;2.10;;;1.10;;
72117;SDS011;59992;47.490;8.736;2023-04-25T08:17:38;1.90;;;1.20;;
72117;SDS011;59992;47.490;8.736;2023-04-25T08:20:28;2.70;;;1.10;;
72117;SDS011;59992;47.490;8.736;2023-04-25T08:23:18;3.30;;;1.30;;
72117;SDS011;59992;47.490;8.736;2023-04-25T08:26:08;4.10;;;1.50;;
72117;SDS011;59992;47.490;8.736;2023-04-25T08:28:59;3.10;;;1.20;;
72117;SDS011;59992;47.490;8.736;2023-04-25T08:31:49;2.90;;;1.20;;
72117;SDS011;59992;47.490;8.736;2023-04-25T08:34:40;2.30;;;1.10;;
72117;SDS011;59992;47.490;8.736;2023-04-25T08:37:31;3.30;;;1.30;;
72117;SDS011;59992;47.490;8.736;2023-04-25T08:40:22;2.40;;;1.00;;
72117;SDS011;59992;47.490;8.736;2023-04-25T08:43:17;3.20;;;1.60;;
72117;SDS011;59992;47.490;8.736;2023-04-25T08:46:08;1.90;;;1.30;;
72117;SDS011;59992;47.490;8.736;2023-04-25T08:49:00;3.10;;;1.50;;
72117;SDS011;59992;47.490;8.736;2023-04-25T08:51:50;5.80;;;1.30;;
72117;SDS011;59992;47.490;8.736;2023-04-25T08:54:47;3.20;;;1.40;;
72117;SDS011;59992;47.490;8.736;2023-04-25T08:57:39;2.20;;;1.20;;
72117;SDS011;59992;47.490;8.736;2023-04-25T09:00:31;3.20;;;1.30;;
72117;SDS011;59992;47.490;8.736;2023-04-25T09:03:22;2.20;;;1.40;;
72117;SDS011;59992;47.490;8.736;2023-04-25T09:06:12;2.80;;;1.30;;
72117;SDS011;59992;47.490;8.736;2023-04-25T09:09:04;2.40;;;1.20;;
72117;SDS011;59992;47.490;8.736;2023-04-25T09:11:55;3.30;;;1.30;;
72117;SDS011;59992;47.490;8.736;2023-04-25T09:14:55;2.50;;;1.40;;
72117;SDS011;59992;47.490;8.736;2023-04-25T09:17:56;2.20;;;1.40;;
72117;SDS011;59992;47.490;8.736;2023-04-25T09:20:47;2.40;;;0.90;;
72117;SDS011;59992;47.490;8.736;2023-04-25T09:23:40;3.20;;;1.30;;
72117;SDS011;59992;47.490;8.736;2023-04-25T09:26:32;2.10;;;1.20;;
72117;SDS011;59992;47.490;8.736;2023-04-25T09:29:24;1.80;;;1.00;;
72117;SDS011;59992;47.490;8.736;2023-04-25T09:32:20;3.10;;;1.40;;
72117;SDS011;59992;47.490;8.736;2023-04-25T09:35:11;3.50;;;1.20;;
72117;SDS011;59992;47.490;8.736;2023-04-25T09:38:14;1.50;;;1.10;;
72117;SDS011;59992;47.490;8.736;2023-04-25T09:41:06;1.80;;;1.00;;
72117;SDS011;59992;47.490;8.736;2023-04-25T09:43:57;1.90;;;1.00;;
72117;SDS011;59992;47.490;8.736;2023-04-25T09:46:50;2.20;;;1.40;;
72117;SDS011;59992;47.490;8.736;2023-04-25T09:49:41;1.20;;;0.70;;
72117;SDS011;59992;47.490;8.736;2023-04-25T09:52:32;1.20;;;0.80;;
72117;SDS011;59992;47.490;8.736;2023-04-25T09:55:22;1.90;;;0.80;;
72117;SDS011;59992;47.490;8.736;2023-04-25T09:58:13;1.20;;;0.80;;
72117;SDS011;59992;47.490;8.736;2023-04-25T10:01:05;2.10;;;1.00;;
72117;SDS011;59992;47.490;8.736;2023-04-25T10:03:56;0.90;;;0.70;;
72117;SDS011;59992;47.490;8.736;2023-04-25T10:06:47;3.40;;;1.00;;
72117;SDS011;59992;47.490;8.736;2023-04-25T10:09:39;1.70;;;0.70;;
72117;SDS011;59992;47.490;8.736;2023-04-25T10:12:30;2.00;;;0.90;;
72117;SDS011;59992;47.490;8.736;2023-04-25T10:15:22;1.60;;;0.70;;
72117;SDS011;59992;47.490;8.736;2023-04-25T10:18:13;2.40;;;0.80;;
72117;SDS011;59992;47.490;8.736;2023-04-25T10:21:05;2.90;;;0.90;;
72117;SDS011;59992;47.490;8.736;2023-04-25T10:23:56;0.90;;;0.60;;
72117;SDS011;59992;47.490;8.736;2023-04-25T10:26:47;1.10;;;0.90;;
72117;SDS011;59992;47.490;8.736;2023-04-25T10:29:38;1.50;;;0.60;;
72117;SDS011;59992;47.490;8.736;2023-04-25T10:32:29;1.20;;;0.60;;
72117;SDS011;59992;47.490;8.736;2023-04-25T10:35:24;1.60;;;0.60;;
72117;SDS011;59992;47.490;8.736;2023-04-25T10:38:15;1.40;;;0.50;;
72117;SDS011;59992;47.490;8.736;2023-04-25T10:41:07;1.00;;;0.70;;
72117;SDS011;59992;47.490;8.736;2023-04-25T10:44:00;1.20;;;0.60;;
72117;SDS011;59992;47.490;8.736;2023-04-25T10:46:54;1.00;;;0.60;;
72117;SDS011;59992;47.490;8.736;2023-04-25T10:49:45;0.80;;;0.60;;
72117;SDS011;59992;47.490;8.736;2023-04-25T10:52:41;4.40;;;0.80;;
72117;SDS011;59992;47.490;8.736;2023-04-25T10:58:43;1.20;;;0.60;;
72117;SDS011;59992;47.490;8.736;2023-04-25T11:01:37;2.20;;;0.50;;
72117;SDS011;59992;47.490;8.736;2023-04-25T11:04:29;1.90;;;0.70;;
72117;SDS011;59992;47.490;8.736;2023-04-25T11:07:23;1.00;;;0.60;;
72117;SDS011;59992;47.490;8.736;2023-04-25T11:10:20;0.90;;;0.50;;
72117;SDS011;59992;47.490;8.736;2023-04-25T11:13:13;1.20;;;0.60;;
72117;SDS011;59992;47.490;8.736;2023-04-25T11:16:03;1.60;;;0.60;;
72117;SDS011;59992;47.490;8.736;2023-04-25T11:18:58;1.30;;;0.60;;
72117;SDS011;59992;47.490;8.736;2023-04-25T11:21:48;1.60;;;0.70;;
72117;SDS011;59992;47.490;8.736;2023-04-25T11:24:39;1.80;;;0.60;;
72117;SDS011;59992;47.490;8.736;2023-04-25T11:27:30;0.70;;;0.60;;
72117;SDS011;59992;47.490;8.736;2023-04-25T11:30:21;1.20;;;0.70;;
72117;SDS011;59992;47.490;8.736;2023-04-25T11:33:14;1.30;;;0.70;;
72117;SDS011;59992;47.490;8.736;2023-04-25T11:36:05;2.40;;;0.80;;
72117;SDS011;59992;47.490;8.736;2023-04-25T11:38:56;2.20;;;0.60;;
72117;SDS011;59992;47.490;8.736;2023-04-25T11:41:47;1.10;;;0.50;;
72117;SDS011;59992;47.490;8.736;2023-04-25T11:44:38;1.40;;;0.60;;
72117;SDS011;59992;47.490;8.736;2023-04-25T11:47:29;2.10;;;0.70;;
72117;SDS011;59992;47.490;8.736;2023-04-25T11:50:20;2.10;;;1.10;;
72117;SDS011;59992;47.490;8.736;2023-04-25T11:53:11;5.00;;;1.40;;
72117;SDS011;59992;47.490;8.736;2023-04-25T11:56:01;1.00;;;0.60;;
72117;SDS011;59992;47.490;8.736;2023-04-25T11:59:00;4.20;;;0.70;;
72117;SDS011;59992;47.490;8.736;2023-04-25T12:01:50;3.00;;;0.90;;
72117;SDS011;59992;47.490;8.736;2023-04-25T12:04:41;0.90;;;0.70;;
72117;SDS011;59992;47.490;8.736;2023-04-25T12:07:31;1.80;;;0.80;;
72117;SDS011;59992;47.490;8.736;2023-04-25T12:10:21;2.20;;;1.00;;
72117;SDS011;59992;47.490;8.736;2023-04-25T12:13:23;2.80;;;0.90;;
72117;SDS011;59992;47.490;8.736;2023-04-25T12:16:15;1.40;;;0.90;;
72117;SDS011;59992;47.490;8.736;2023-04-25T12:19:07;1.50;;;0.80;;
72117;SDS011;59992;47.490;8.736;2023-04-25T12:22:18;2.00;;;0.90;;
72117;SDS011;59992;47.490;8.736;2023-04-25T12:25:10;1.50;;;0.90;;
72117;SDS011;59992;47.490;8.736;2023-04-25T12:28:10;1.20;;;0.70;;
72117;SDS011;59992;47.490;8.736;2023-04-25T12:31:02;2.20;;;0.80;;
72117;SDS011;59992;47.490;8.736;2023-04-25T12:33:53;1.20;;;0.60;;
72117;SDS011;59992;47.490;8.736;2023-04-25T12:36:45;1.20;;;0.70;;
72117;SDS011;59992;47.490;8.736;2023-04-25T12:39:36;1.40;;;0.60;;
72117;SDS011;59992;47.490;8.736;2023-04-25T12:42:26;0.90;;;0.70;;
72117;SDS011;59992;47.490;8.736;2023-04-25T12:45:16;0.80;;;0.50;;
72117;SDS011;59992;47.490;8.736;2023-04-25T12:48:06;1.40;;;0.60;;
72117;SDS011;59992;47.490;8.736;2023-04-25T12:50:57;0.70;;;0.60;;
72117;SDS011;59992;47.490;8.736;2023-04-25T12:53:47;1.70;;;0.70;;
72117;SDS011;59992;47.490;8.736;2023-04-25T12:56:38;1.40;;;0.60;;
72117;SDS011;59992;47.490;8.736;2023-04-25T12:59:29;0.90;;;0.80;;
72117;SDS011;59992;47.490;8.736;2023-04-25T13:02:19;1.90;;;0.80;;
72117;SDS011;59992;47.490;8.736;2023-04-25T13:05:10;3.50;;;1.00;;
72117;SDS011;59992;47.490;8.736;2023-04-25T13:08:00;1.00;;;0.60;;
72117;SDS011;59992;47.490;8.736;2023-04-25T13:10:51;1.80;;;0.80;;
72117;SDS011;59992;47.490;8.736;2023-04-25T13:13:42;1.90;;;0.70;;
72117;SDS011;59992;47.490;8.736;2023-04-25T13:16:32;2.40;;;0.80;;
72117;SDS011;59992;47.490;8.736;2023-04-25T13:19:23;1.70;;;0.70;;
72117;SDS011;59992;47.490;8.736;2023-04-25T13:22:13;1.60;;;0.60;;
72117;SDS011;59992;47.490;8.736;2023-04-25T13:25:04;0.70;;;0.50;;
72117;SDS011;59992;47.490;8.736;2023-04-25T13:27:55;3.70;;;0.90;;
72117;SDS011;59992;47.490;8.736;2023-04-25T13:30:46;2.50;;;0.80;;
72117;SDS011;59992;47.490;8.736;2023-04-25T13:33:36;1.80;;;0.80;;
72117;SDS011;59992;47.490;8.736;2023-04-25T13:36:26;1.60;;;0.90;;
72117;SDS011;59992;47.490;8.736;2023-04-25T13:43:03;2.00;;;0.70;;
72117;SDS011;59992;47.490;8.736;2023-04-25T13:45:54;1.80;;;1.10;;
72117;SDS011;59992;47.490;8.736;2023-04-25T13:48:44;2.90;;;0.90;;
72117;SDS011;59992;47.490;8.736;2023-04-25T13:51:36;3.50;;;1.00;;
72117;SDS011;59992;47.490;8.736;2023-04-25T13:54:26;2.30;;;0.80;;
72117;SDS011;59992;47.490;8.736;2023-04-25T13:57:16;1.50;;;0.70;;
72117;SDS011;59992;47.490;8.736;2023-04-25T14:00:08;1.10;;;0.80;;
72117;SDS011;59992;47.490;8.736;2023-04-25T14:02:59;1.50;;;0.70;;
72117;SDS011;59992;47.490;8.736;2023-04-25T14:05:52;3.90;;;0.70;;
72117;SDS011;59992;47.490;8.736;2023-04-25T14:08:42;1.10;;;0.60;;
72117;SDS011;59992;47.490;8.736;2023-04-25T14:11:33;1.40;;;0.70;;
72117;SDS011;59992;47.490;8.736;2023-04-25T14:14:25;1.60;;;0.90;;
72117;SDS011;59992;47.490;8.736;2023-04-25T14:17:19;2.30;;;0.80;;
72117;SDS011;59992;47.490;8.736;2023-04-25T14:20:10;1.30;;;0.80;;
72117;SDS011;59992;47.490;8.736;2023-04-25T14:23:01;1.80;;;0.90;;
72117;SDS011;59992;47.490;8.736;2023-04-25T14:25:52;2.30;;;1.00;;
72117;SDS011;59992;47.490;8.736;2023-04-25T14:28:42;2.40;;;0.90;;
72117;SDS011;59992;47.490;8.736;2023-04-25T14:31:32;1.90;;;1.10;;
72117;SDS011;59992;47.490;8.736;2023-04-25T14:34:23;2.90;;;1.00;;
72117;SDS011;59992;47.490;8.736;2023-04-25T14:37:13;3.70;;;1.20;;
72117;SDS011;59992;47.490;8.736;2023-04-25T14:40:04;1.40;;;0.60;;
72117;SDS011;59992;47.490;8.736;2023-04-25T14:42:57;1.00;;;0.70;;
72117;SDS011;59992;47.490;8.736;2023-04-25T14:45:47;2.30;;;0.90;;
72117;SDS011;59992;47.490;8.736;2023-04-25T14:48:38;3.40;;;0.80;;
72117;SDS011;59992;47.490;8.736;2023-04-25T14:51:28;1.80;;;0.70;;
72117;SDS011;59992;47.490;8.736;2023-04-25T14:54:18;1.40;;;0.80;;
72117;SDS011;59992;47.490;8.736;2023-04-25T14:57:08;1.70;;;0.70;;
72117;SDS011;59992;47.490;8.736;2023-04-25T14:59:59;1.90;;;0.70;;
72117;SDS011;59992;47.490;8.736;2023-04-25T15:02:52;1.10;;;0.60;;
72117;SDS011;59992;47.490;8.736;2023-04-25T15:05:43;1.60;;;0.80;;
72117;SDS011;59992;47.490;8.736;2023-04-25T15:08:33;2.70;;;0.90;;
72117;SDS011;59992;47.490;8.736;2023-04-25T15:11:24;1.60;;;0.60;;
72117;SDS011;59992;47.490;8.736;2023-04-25T15:14:14;1.10;;;0.70;;
72117;SDS011;59992;47.490;8.736;2023-04-25T15:17:05;2.60;;;0.90;;
72117;SDS011;59992;47.490;8.736;2023-04-25T15:19:55;1.50;;;0.80;;
72117;SDS011;59992;47.490;8.736;2023-04-25T15:22:45;2.50;;;0.80;;
72117;SDS011;59992;47.490;8.736;2023-04-25T15:25:36;2.10;;;0.70;;
72117;SDS011;59992;47.490;8.736;2023-04-25T15:28:26;4.00;;;1.00;;
72117;SDS011;59992;47.490;8.736;2023-04-25T15:31:19;1.40;;;0.90;;
72117;SDS011;59992;47.490;8.736;2023-04-25T15:34:10;3.10;;;0.90;;
72117;SDS011;59992;47.490;8.736;2023-04-25T15:37:00;1.50;;;0.80;;
72117;SDS011;59992;47.490;8.736;2023-04-25T15:39:51;0.80;;;0.60;;
72117;SDS011;59992;47.490;8.736;2023-04-25T15:42:53;1.80;;;0.70;;
72117;SDS011;59992;47.490;8.736;2023-04-25T15:45:44;1.90;;;1.00;;
72117;SDS011;59992;47.490;8.736;2023-04-25T15:48:36;1.40;;;0.80;;
72117;SDS011;59992;47.490;8.736;2023-04-25T15:51:27;1.50;;;0.80;;
72117;SDS011;59992;47.490;8.736;2023-04-25T15:54:18;1.20;;;0.70;;
72117;SDS011;59992;47.490;8.736;2023-04-25T15:57:08;1.30;;;0.50;;
72117;SDS011;59992;47.490;8.736;2023-04-25T15:59:59;0.80;;;0.40;;
72117;SDS011;59992;47.490;8.736;2023-04-25T16:02:54;2.20;;;0.70;;
72117;SDS011;59992;47.490;8.736;2023-04-25T16:05:44;1.70;;;0.80;;
72117;SDS011;59992;47.490;8.736;2023-04-25T16:08:35;2.40;;;0.70;;
72117;SDS011;59992;47.490;8.736;2023-04-25T16:11:26;2.50;;;1.00;;
72117;SDS011;59992;47.490;8.736;2023-04-25T16:14:17;1.90;;;0.90;;
72117;SDS011;59992;47.490;8.736;2023-04-25T16:17:07;1.30;;;0.80;;
72117;SDS011;59992;47.490;8.736;2023-04-25T16:19:58;1.20;;;0.80;;
72117;SDS011;59992;47.490;8.736;2023-04-25T16:22:52;1.90;;;1.00;;
72117;SDS011;59992;47.490;8.736;2023-04-25T16:25:43;1.80;;;0.80;;
72117;SDS011;59992;47.490;8.736;2023-04-25T16:28:34;1.60;;;0.80;;
72117;SDS011;59992;47.490;8.736;2023-04-25T16:31:25;1.90;;;0.60;;
72117;SDS011;59992;47.490;8.736;2023-04-25T16:34:23;1.80;;;0.80;;
72117;SDS011;59992;47.490;8.736;2023-04-25T16:37:14;1.90;;;0.70;;
72117;SDS011;59992;47.490;8.736;2023-04-25T16:40:05;1.80;;;0.80;;
72117;SDS011;59992;47.490;8.736;2023-04-25T16:42:56;2.30;;;1.00;;
72117;SDS011;59992;47.490;8.736;2023-04-25T16:45:47;1.80;;;0.90;;
72117;SDS011;59992;47.490;8.736;2023-04-25T16:48:37;1.80;;;0.70;;
72117;SDS011;59992;47.490;8.736;2023-04-25T16:51:27;2.00;;;1.20;;
72117;SDS011;59992;47.490;8.736;2023-04-25T16:54:18;1.70;;;0.90;;
72117;SDS011;59992;47.490;8.736;2023-04-25T16:57:09;3.30;;;1.00;;
72117;SDS011;59992;47.490;8.736;2023-04-25T16:59:59;1.50;;;1.00;;
72117;SDS011;59992;47.490;8.736;2023-04-25T17:02:51;1.30;;;1.00;;
72117;SDS011;59992;47.490;8.736;2023-04-25T17:05:41;2.30;;;1.00;;
72117;SDS011;59992;47.490;8.736;2023-04-25T17:08:32;1.50;;;1.10;;
72117;SDS011;59992;47.490;8.736;2023-04-25T17:11:23;1.70;;;0.80;;
72117;SDS011;59992;47.490;8.736;2023-04-25T17:14:13;1.50;;;0.70;;
72117;SDS011;59992;47.490;8.736;2023-04-25T17:17:16;2.00;;;1.00;;
72117;SDS011;59992;47.490;8.736;2023-04-25T17:20:15;1.60;;;1.10;;
72117;SDS011;59992;47.490;8.736;2023-04-25T17:23:06;2.60;;;0.80;;